YTWA weather

Trawalla Airport
Victoria, Australia

Public forecast

Using degrees Celsius for public forecast. Weather courtesy of forecast.io.

Closest aviation weather report (METAR) to Trawalla Airport

Closest report is Avalon Airport, 60.0 nm (111.1 km) SE. Retrieved 2020/05/29 06:30 UTC (31 minutes ago):

YMAV 290630Z AUTO 32010KT 9999 // SCT047 16/08 Q1024 RF000/0000

Closest aviation forecast (TAF) to Trawalla Airport

Closest forecast is Avalon Airport, 60.0 nm (111.1 km) SE. Retrieved 2020/05/29 06:00 UTC (1 hour ago):

TAF YMAV 290524Z 2906/3006 35012KT 9999 SCT040 FM290900 03010KT 9999 FEW020 FM300100 01016G28KT 9999 FEW035